Time;durP1;ratioP1;P1;durP2;ratioP2;P2;SDS_P1;SDS_P2;PMS_P1;PMS_P2;Temp;Humidity;BMP_temperature;BMP_pressure;BME280_temperature;BME280_humidity;BME280_pressure;Samples;Min_cycle;Max_cycle;Signal;HPM_P1;HPM_P2
2022/01/17 03:47:21;;;;;;;23.40;14.10;;;5.90;90.70;;;;;;4963057;24;20129;-81
2022/01/17 03:49:47;;;;;;;22.70;13.32;;;5.90;90.50;;;;;;4819167;29;20337;-81
2022/01/17 03:52:13;;;;;;;19.73;11.77;;;5.90;90.40;;;;;;4800656;29;20034;-81
2022/01/17 03:54:39;;;;;;;22.85;13.43;;;6.00;90.20;;;;;;4817678;29;20161;-81
2022/01/17 03:57:05;;;;;;;19.55;12.32;;;6.00;90.20;;;;;;4803376;29;20114;-81
2022/01/17 03:59:31;;;;;;;19.50;12.13;;;6.10;90.00;;;;;;4806125;29;20031;-81
2022/01/17 04:01:56;;;;;;;19.42;11.23;;;6.10;90.00;;;;;;4816894;29;20072;-81
2022/01/17 04:04:22;;;;;;;20.48;12.68;;;6.20;89.90;;;;;;4816354;29;20035;-81
2022/01/17 04:06:48;;;;;;;19.77;11.95;;;6.20;90.00;;;;;;4801228;29;20022;-82
2022/01/17 04:09:14;;;;;;;20.67;11.73;;;6.20;90.00;;;;;;4813441;29;20034;-81
2022/01/17 04:11:39;;;;;;;17.90;11.23;;;6.20;89.70;;;;;;4804303;29;20045;-81
2022/01/17 04:14:06;;;;;;;17.58;10.55;;;6.20;89.00;;;;;;4819066;29;20034;-80
2022/01/17 04:16:33;;;;;;;16.17;10.20;;;6.30;88.60;;;;;;4785741;29;20052;-81
2022/01/17 04:18:59;;;;;;;19.13;10.60;;;6.30;88.20;;;;;;4816601;29;20035;-81
2022/01/17 04:21:33;;;;;;;17.42;10.68;;;6.30;88.30;;;;;;4834215;29;20394;-81
2022/01/17 04:23:59;;;;;;;17.38;11.13;;;6.40;88.10;;;;;;4816149;29;20039;-81
2022/01/17 04:26:24;;;;;;;15.48;9.68;;;6.30;88.00;;;;;;4819009;29;20162;-81
2022/01/17 04:28:50;;;;;;;16.90;9.88;;;6.40;87.70;;;;;;4834116;29;20034;-82
2022/01/17 04:31:16;;;;;;;17.48;9.88;;;6.40;87.40;;;;;;4828022;29;20039;-81
2022/01/17 04:33:42;;;;;;;16.08;10.27;;;6.40;87.30;;;;;;4812413;29;20030;-81
2022/01/17 04:36:09;;;;;;;14.38;8.93;;;6.40;87.00;;;;;;4789146;29;20076;-81
2022/01/17 04:38:35;;;;;;;14.70;9.02;;;6.50;86.80;;;;;;4815676;29;20027;-81
2022/01/17 04:41:04;;;;;;;17.52;9.70;;;6.50;86.80;;;;;;4816033;29;20106;-81
2022/01/17 04:46:04;;;;;;;18.23;10.70;;;6.40;88.60;;;;;;4821507;29;20094;-81
2022/01/17 04:48:30;;;;;;;;;;;6.40;88.20;;;;;;4817156;29;20034;-81
2022/01/17 04:50:56;;;;;;;19.57;10.80;;;6.40;89.20;;;;;;4800774;29;19917;-82
2022/01/17 04:53:22;;;;;;;18.35;11.05;;;6.30;89.30;;;;;;4815788;29;20034;-81
2022/01/17 04:55:49;;;;;;;18.40;11.43;;;6.30;89.80;;;;;;4815353;29;20103;-81
2022/01/17 04:58:16;;;;;;;21.13;12.18;;;6.30;90.00;;;;;;4796865;29;20409;-82
2022/01/17 05:00:46;;;;;;;18.10;11.25;;;6.30;90.10;;;;;;4815857;29;20070;-81
2022/01/17 05:03:21;;;;;;;20.83;11.60;;;6.30;90.10;;;;;;4806450;29;20273;-82
2022/01/17 05:05:47;;;;;;;19.02;12.32;;;6.40;90.30;;;;;;4828163;29;20061;-81
2022/01/17 05:08:14;;;;;;;22.73;12.90;;;6.40;90.40;;;;;;4818274;29;20065;-81
2022/01/17 05:10:46;;;;;;;21.80;12.95;;;6.40;90.50;;;;;;4811964;29;20330;-82
2022/01/17 05:13:18;;;;;;;21.65;12.40;;;6.40;90.30;;;;;;4819012;29;20030;-82
2022/01/17 05:15:50;;;;;;;19.85;12.63;;;6.40;90.10;;;;;;4818248;29;20042;-81
2022/01/17 05:20:59;;;;;;;19.73;12.18;;;6.40;90.20;;;;;;4795602;29;20038;-81
2022/01/17 05:23:25;;;;;;;25.50;13.70;;;6.50;90.10;;;;;;4794935;29;20113;-82
2022/01/17 05:25:50;;;;;;;23.67;13.63;;;6.50;90.10;;;;;;4814986;29;20088;-82
2022/01/17 05:28:16;;;;;;;23.05;14.63;;;6.50;90.40;;;;;;4809311;29;20326;-81
2022/01/17 05:30:42;;;;;;;27.55;15.05;;;6.40;90.70;;;;;;4817954;29;20242;-81
2022/01/17 05:33:08;;;;;;;22.73;12.30;;;6.40;90.90;;;;;;4805641;29;20426;-80
2022/01/17 05:35:34;;;;;;;25.85;14.35;;;6.40;91.10;;;;;;4820835;29;20038;-81
2022/01/17 05:38:00;;;;;;;24.98;14.43;;;6.40;91.30;;;;;;4827568;29;20050;-81
2022/01/17 05:40:26;;;;;;;24.80;14.20;;;6.40;91.40;;;;;;4817199;29;20065;-81
2022/01/17 05:42:52;;;;;;;23.23;14.20;;;6.30;91.70;;;;;;4816975;29;20339;-81
2022/01/17 05:45:18;;;;;;;27.83;15.77;;;6.40;91.50;;;;;;4824918;29;20042;-81
2022/01/17 05:47:45;;;;;;;26.92;15.88;;;6.30;91.70;;;;;;4834879;29;20138;-81
2022/01/17 05:50:12;;;;;;;26.48;15.52;;;6.40;91.60;;;;;;4799663;29;20125;-81
2022/01/17 05:52:38;;;;;;;26.10;15.73;;;6.30;91.80;;;;;;4823420;29;20050;-82
2022/01/17 05:55:07;;;;;;;22.92;15.80;;;6.40;91.90;;;;;;4827882;29;20031;-81
2022/01/17 05:57:33;;;;;;;31.45;17.45;;;6.40;92.00;;;;;;4807335;29;20113;-83
2022/01/17 06:00:00;;;;;;;25.65;16.60;;;6.30;92.00;;;;;;4799299;29;20050;-83
2022/01/17 06:02:26;;;;;;;;;;;6.30;92.10;;;;;;4812448;29;20039;-82
2022/01/17 06:04:52;;;;;;;28.90;17.15;;;6.30;92.00;;;;;;4816679;29;19913;-81
2022/01/17 06:07:18;;;;;;;24.45;15.40;;;6.30;92.00;;;;;;4811408;29;20054;-82
2022/01/17 06:09:44;;;;;;;31.15;16.40;;;6.30;92.00;;;;;;4816486;29;20051;-82
2022/01/17 06:12:14;;;;;;;27.02;16.55;;;6.30;92.00;;;;;;4804810;29;20030;-82
2022/01/17 06:14:40;;;;;;;31.08;15.77;;;6.30;92.00;;;;;;4811334;29;20084;-82
2022/01/17 06:17:07;;;;;;;26.70;17.27;;;6.30;91.90;;;;;;4798148;29;20260;-82
2022/01/17 06:19:32;;;;;;;31.90;16.77;;;6.30;91.90;;;;;;4821945;29;20053;-82
2022/01/17 06:21:58;;;;;;;33.63;17.48;;;6.30;91.80;;;;;;4822268;29;20037;-82
2022/01/17 06:24:24;;;;;;;45.58;22.52;;;6.30;91.80;;;;;;4790384;29;20026;-82
2022/01/17 06:26:50;;;;;;;30.98;17.23;;;6.30;91.80;;;;;;4808150;29;20043;-82
2022/01/17 06:29:17;;;;;;;29.15;16.10;;;6.30;91.80;;;;;;4814345;29;20078;-82
2022/01/17 06:31:44;;;;;;;28.77;16.87;;;6.30;91.70;;;;;;4808972;29;20042;-82
2022/01/17 06:34:10;;;;;;;;;;;6.30;91.60;;;;;;4811980;29;20030;-82
2022/01/17 06:36:36;;;;;;;26.83;16.45;;;6.30;91.50;;;;;;4826561;29;19917;-82
2022/01/17 06:39:04;;;;;;;24.80;15.23;;;6.30;91.40;;;;;;4814426;29;20083;-81
2022/01/17 06:41:30;;;;;;;27.08;14.77;;;6.30;91.30;;;;;;4814409;29;20038;-82
2022/01/17 06:43:56;;;;;;;28.77;15.27;;;6.30;91.30;;;;;;4817105;29;20069;-81
2022/01/17 06:46:24;;;;;;;25.00;15.10;;;6.40;91.20;;;;;;4798212;29;20082;-82
2022/01/17 06:48:51;;;;;;;24.83;15.27;;;6.40;91.20;;;;;;4800936;29;20047;-82
2022/01/17 06:51:17;;;;;;;25.52;15.48;;;6.40;91.10;;;;;;4787334;29;20342;-82
2022/01/17 06:53:43;;;;;;;27.25;15.45;;;6.40;90.90;;;;;;4817861;29;20064;-83
2022/01/17 06:56:10;;;;;;;25.17;15.35;;;6.50;91.00;;;;;;4825392;29;20117;-82
2022/01/17 06:58:36;;;;;;;25.85;14.88;;;6.50;90.80;;;;;;4758731;29;20307;-82
2022/01/17 07:01:05;;;;;;;31.30;16.30;;;6.50;90.80;;;;;;4776246;29;20234;-82
2022/01/17 07:03:31;;;;;;;24.25;15.38;;;6.50;90.80;;;;;;4751102;30;20131;-83
2022/01/17 07:05:57;;;;;;;25.07;15.07;;;6.50;90.80;;;;;;4778522;29;20045;-82
2022/01/17 07:08:23;;;;;;;24.33;14.85;;;6.50;90.80;;;;;;4783379;29;20039;-82
2022/01/17 07:10:49;;;;;;;30.17;15.05;;;6.60;90.70;;;;;;4791582;30;20122;-82
2022/01/17 07:13:15;;;;;;;27.73;15.50;;;6.60;90.50;;;;;;4770449;29;20342;-82
2022/01/17 07:15:40;;;;;;;26.92;13.55;;;6.60;90.60;;;;;;4751822;29;20273;-82
2022/01/17 07:18:11;;;;;;;24.27;14.90;;;6.60;90.50;;;;;;4761233;30;20027;-82
2022/01/17 07:20:37;;;;;;;25.98;14.20;;;6.60;90.60;;;;;;4782720;30;20240;-82
2022/01/17 07:23:03;;;;;;;25.25;15.50;;;6.60;90.70;;;;;;4779060;29;20035;-83
2022/01/17 07:25:29;;;;;;;25.08;14.88;;;6.60;90.70;;;;;;4778897;29;20166;-83
2022/01/17 07:27:56;;;;;;;30.95;17.10;;;6.60;90.90;;;;;;4782057;29;20273;-83
2022/01/17 07:30:23;;;;;;;31.77;17.25;;;6.60;90.90;;;;;;4775196;29;20137;-83
2022/01/17 07:32:48;;;;;;;24.77;15.07;;;6.60;90.90;;;;;;4780244;29;20378;-84
2022/01/17 07:35:17;;;;;;;23.33;13.48;;;6.60;90.90;;;;;;4786889;29;20062;-83
2022/01/17 07:37:42;;;;;;;26.55;14.70;;;6.70;90.80;;;;;;4801045;29;20065;-83
2022/01/17 07:40:09;;;;;;;26.35;15.40;;;6.70;90.80;;;;;;4790614;29;20061;-83
2022/01/17 07:42:35;;;;;;;24.80;15.05;;;6.70;90.70;;;;;;4823172;29;20101;-83
2022/01/17 07:45:09;;;;;;;24.93;15.03;;;6.80;90.60;;;;;;4817114;29;20039;-83
2022/01/17 07:47:45;;;;;;;29.02;16.27;;;6.70;90.60;;;;;;4813520;29;20055;-83
2022/01/17 07:50:15;;;;;;;32.00;15.07;;;6.80;90.70;;;;;;4811552;29;20246;-82
2022/01/17 07:52:42;;;;;;;24.67;15.57;;;6.70;90.60;;;;;;4812660;29;20027;-84
2022/01/17 07:55:08;;;;;;;27.38;15.57;;;6.80;90.70;;;;;;4788557;29;20035;-82
2022/01/17 07:57:36;;;;;;;29.73;16.15;;;6.80;90.70;;;;;;4775438;29;20047;-82
2022/01/17 08:00:03;;;;;;;30.23;16.58;;;6.80;90.60;;;;;;4825757;29;20381;-82
2022/01/17 08:02:28;;;;;;;35.80;16.92;;;6.80;90.70;;;;;;4806027;29;20026;-82
2022/01/17 08:04:54;;;;;;;30.60;16.95;;;6.80;90.70;;;;;;4778517;29;20053;-83
2022/01/17 08:07:20;;;;;;;27.48;15.75;;;6.90;90.50;;;;;;4783341;29;20035;-84
2022/01/17 08:09:46;;;;;;;28.38;14.88;;;6.90;90.40;;;;;;4783924;29;20038;-84
2022/01/17 08:12:11;;;;;;;25.75;14.95;;;6.90;90.30;;;;;;4816261;29;20022;-84
2022/01/17 08:14:39;;;;;;;27.48;14.93;;;6.90;90.20;;;;;;4798195;29;20038;-83
2022/01/17 08:17:05;;;;;;;28.42;15.65;;;6.90;90.20;;;;;;4808977;29;20015;-83
2022/01/17 08:19:31;;;;;;;28.38;16.60;;;6.90;90.20;;;;;;4806846;29;20054;-83
2022/01/17 08:21:58;;;;;;;24.43;14.93;;;6.90;90.20;;;;;;4821395;29;20236;-83
2022/01/17 08:24:24;;;;;;;24.90;15.52;;;6.90;90.30;;;;;;4816299;29;20082;-83
2022/01/17 08:26:50;;;;;;;33.42;16.25;;;6.90;90.20;;;;;;4778910;29;20046;-83
2022/01/17 08:29:17;;;;;;;24.33;14.98;;;7.00;90.20;;;;;;4800190;29;20039;-83
2022/01/17 08:31:46;;;;;;;26.17;14.27;;;7.00;90.10;;;;;;4791149;29;20055;-83
2022/01/17 08:34:17;;;;;;;24.50;14.10;;;7.00;89.60;;;;;;4778535;29;20114;-83
2022/01/17 08:36:43;;;;;;;25.20;14.20;;;7.10;89.50;;;;;;4813646;29;20058;-83
2022/01/17 08:39:10;;;;;;;24.25;13.57;;;7.10;89.40;;;;;;4815711;29;20026;-84
2022/01/17 08:41:40;;;;;;;28.42;13.15;;;7.10;89.00;;;;;;4808280;29;20042;-83
2022/01/17 08:44:06;;;;;;;19.88;12.38;;;7.20;89.00;;;;;;4822174;29;20050;-83
2022/01/17 08:46:34;;;;;;;18.38;11.75;;;7.20;88.50;;;;;;4779073;29;20403;-83
2022/01/17 08:49:00;;;;;;;19.15;11.02;;;7.20;88.30;;;;;;4820961;29;20065;-83
2022/01/17 08:51:26;;;;;;;20.48;11.77;;;7.20;87.90;;;;;;4781856;29;20039;-83
2022/01/17 08:53:52;;;;;;;17.42;10.68;;;7.20;87.80;;;;;;4832640;29;20042;-83
2022/01/17 08:56:17;;;;;;;18.98;10.30;;;7.30;87.50;;;;;;4799896;29;20039;-83
2022/01/17 08:58:43;;;;;;;18.08;10.73;;;7.30;87.70;;;;;;4785231;29;20276;-83
2022/01/17 09:01:13;;;;;;;17.27;9.90;;;7.20;87.40;;;;;;4802609;29;20034;-83
2022/01/17 09:03:42;;;;;;;17.55;9.52;;;7.30;87.40;;;;;;4832305;29;20238;-82
2022/01/17 09:06:08;;;;;;;18.48;9.57;;;7.20;87.40;;;;;;4814491;29;20046;-83
2022/01/17 09:08:33;;;;;;;12.43;7.80;;;7.30;87.60;;;;;;4814573;29;20041;-82
2022/01/17 09:10:59;;;;;;;13.18;8.52;;;7.20;87.30;;;;;;4817092;29;20055;-83
2022/01/17 09:13:26;;;;;;;18.17;10.35;;;7.20;87.70;;;;;;4811472;29;20039;-83
2022/01/17 09:15:53;;;;;;;16.65;8.95;;;7.30;87.80;;;;;;4831650;29;20030;-82
2022/01/17 09:18:20;;;;;;;17.58;8.98;;;7.30;87.00;;;;;;4829608;29;20030;-84
2022/01/17 09:20:46;;;;;;;16.02;8.20;;;7.30;87.20;;;;;;4802203;29;20045;-83
2022/01/17 09:23:12;;;;;;;12.65;8.20;;;7.30;87.50;;;;;;4816920;29;20334;-83
2022/01/17 09:25:38;;;;;;;13.57;8.23;;;7.30;88.20;;;;;;4817281;29;20390;-83
2022/01/17 09:28:05;;;;;;;15.15;8.65;;;7.30;87.50;;;;;;4817182;29;20042;-83
2022/01/17 09:30:32;;;;;;;16.42;7.93;;;7.40;87.40;;;;;;4816741;29;20030;-82
2022/01/17 09:32:58;;;;;;;14.93;7.95;;;7.40;87.20;;;;;;4817169;29;20042;-83
2022/01/17 09:35:24;;;;;;;19.30;8.50;;;7.40;87.30;;;;;;4814884;29;20042;-83
2022/01/17 09:37:51;;;;;;;12.20;7.30;;;7.40;87.90;;;;;;4795408;29;20325;-83
2022/01/17 09:40:19;;;;;;;14.00;7.35;;;7.40;87.60;;;;;;4815045;29;20041;-83
2022/01/17 09:42:45;;;;;;;14.98;8.45;;;7.40;87.80;;;;;;4789864;29;20387;-83
2022/01/17 09:45:15;;;;;;;12.77;7.53;;;7.50;87.80;;;;;;4814215;29;20046;-83
2022/01/17 09:47:42;;;;;;;15.05;7.05;;;7.50;87.30;;;;;;4825681;29;20394;-83
2022/01/17 09:50:13;;;;;;;13.68;7.35;;;7.40;87.50;;;;;;4826693;29;20038;-83
2022/01/17 09:52:45;;;;;;;13.43;7.75;;;7.40;87.60;;;;;;4804899;29;20034;-83
2022/01/17 09:55:14;;;;;;;14.90;8.38;;;7.40;87.90;;;;;;4802204;29;20030;-83
2022/01/17 09:57:49;;;;;;;13.95;8.02;;;7.40;87.80;;;;;;4813562;29;20034;-83
2022/01/17 10:00:17;;;;;;;14.98;7.88;;;7.50;87.60;;;;;;4822664;29;20064;-83
2022/01/17 10:02:43;;;;;;;16.65;8.38;;;7.50;87.70;;;;;;4833292;29;20038;-83
2022/01/17 10:05:10;;;;;;;13.75;8.02;;;7.50;87.70;;;;;;4816054;29;20289;-82
2022/01/17 10:07:54;;;;;;;12.95;8.07;;;7.40;87.80;;;;;;4803197;29;20113;-83
2022/01/17 10:10:54;;;;;;;13.60;8.75;;;7.50;88.00;;;;;;4813877;29;20354;-83
2022/01/17 10:13:23;;;;;;;14.70;8.27;;;7.50;88.00;;;;;;4803893;29;20098;-82
2022/01/17 10:16:29;;;;;;;16.10;8.27;;;7.50;88.00;;;;;;4815412;29;20041;-82
2022/01/17 10:19:01;;;;;;;13.77;9.27;;;7.50;88.00;;;;;;4728465;30;20032;-80
2022/01/17 10:21:43;;;;;;;16.80;8.73;;;7.50;87.60;;;;;;4727883;30;20041;-81
2022/01/17 10:27:03;;;;;;;15.83;9.00;;;7.70;87.30;;;;;;4749767;30;20058;-82
2022/01/17 10:35:21;;;;;;;16.80;8.77;;;7.80;85.80;;;;;;4764343;30;20051;-81
2022/01/17 10:38:14;;;;;;;13.88;9.02;;;7.80;85.50;;;;;;4751018;30;20071;-82
2022/01/17 10:40:50;;;;;;;21.40;8.32;;;7.80;85.50;;;;;;4731198;30;20467;-82
2022/01/17 10:43:34;;;;;;;22.08;9.45;;;7.80;85.70;;;;;;4733381;30;20039;-82
2022/01/17 10:46:21;;;;;;;12.85;7.93;;;7.80;85.90;;;;;;4729829;30;20429;-82
2022/01/17 10:48:47;;;;;;;17.77;8.85;;;7.80;85.40;;;;;;4741550;29;20041;-82
2022/01/17 10:51:14;;;;;;;17.95;9.20;;;7.80;85.40;;;;;;4816542;29;20050;-82
2022/01/17 10:53:41;;;;;;;18.98;9.60;;;7.80;85.30;;;;;;4820174;29;20030;-82
2022/01/17 10:56:13;;;;;;;16.55;8.73;;;7.80;85.40;;;;;;4834926;29;20041;-82
2022/01/17 10:58:41;;;;;;;13.80;8.57;;;7.80;85.50;;;;;;4802173;29;20088;-82
2022/01/17 11:01:11;;;;;;;16.98;8.57;;;7.90;84.90;;;;;;4808344;29;20039;-82
2022/01/17 11:03:37;;;;;;;15.55;8.65;;;7.80;84.20;;;;;;4818211;29;20415;-82
2022/01/17 11:06:11;;;;;;;20.20;8.75;;;7.90;84.80;;;;;;4817369;29;20521;-82
2022/01/17 11:08:39;;;;;;;12.52;7.88;;;7.80;84.30;;;;;;4801637;29;20338;-82
2022/01/17 11:11:08;;;;;;;25.05;9.10;;;7.90;84.20;;;;;;4787302;29;20200;-82
2022/01/17 11:13:38;;;;;;;13.07;8.65;;;7.90;84.50;;;;;;4801732;29;20242;-82
2022/01/17 11:16:08;;;;;;;13.68;8.27;;;7.90;84.50;;;;;;4820594;29;20034;-82
2022/01/17 11:18:36;;;;;;;12.60;7.43;;;7.90;84.30;;;;;;4832028;29;20046;-82
2022/01/17 11:21:13;;;;;;;13.90;7.68;;;7.90;84.30;;;;;;4816844;29;20026;-82
2022/01/17 11:23:45;;;;;;;16.25;8.02;;;7.90;84.80;;;;;;4817576;29;20107;-82
2022/01/17 11:26:12;;;;;;;11.60;7.28;;;7.80;84.30;;;;;;4813433;29;20053;-82
2022/01/17 11:28:39;;;;;;;13.95;7.95;;;7.80;84.40;;;;;;4804075;29;20046;-82
2022/01/17 11:31:11;;;;;;;12.18;6.72;;;7.90;84.50;;;;;;4816194;29;20050;-81
2022/01/17 11:33:36;;;;;;;17.23;7.63;;;8.00;83.80;;;;;;4815902;29;20058;-83
2022/01/17 11:36:03;;;;;;;16.42;6.72;;;7.90;84.20;;;;;;4800388;29;20204;-82
2022/01/17 11:38:31;;;;;;;12.73;6.85;;;8.00;84.20;;;;;;4818950;29;20064;-82
2022/01/17 11:40:59;;;;;;;16.73;6.97;;;8.00;84.50;;;;;;4819022;29;20042;-82
2022/01/17 11:43:35;;;;;;;;;;;8.00;84.00;;;;;;4819420;29;20046;-82
2022/01/17 11:46:19;;;;;;;15.95;7.15;;;8.00;83.60;;;;;;4836970;29;19912;-82
2022/01/17 11:48:58;;;;;;;14.52;7.80;;;8.00;83.90;;;;;;4815984;29;20054;-82
2022/01/17 11:51:34;;;;;;;13.45;7.18;;;8.00;83.70;;;;;;4802466;29;20353;-82
2022/01/17 11:54:09;;;;;;;16.73;6.90;;;8.10;83.50;;;;;;4816302;29;20522;-82
2022/01/17 11:57:19;;;;;;;15.75;7.70;;;8.10;83.10;;;;;;4816081;29;20035;-83
2022/01/17 11:59:48;;;;;;;16.90;7.55;;;8.10;83.30;;;;;;4740608;30;20343;-83
2022/01/17 12:02:21;;;;;;;15.90;7.82;;;8.20;83.00;;;;;;4744585;30;20044;-83
2022/01/17 12:05:07;;;;;;;16.45;8.18;;;8.20;83.00;;;;;;4719681;30;20032;-83
2022/01/17 12:07:40;;;;;;;;;;;8.20;83.10;;;;;;4744519;30;20135;-83
2022/01/17 12:10:14;;;;;;;16.20;7.15;;;8.30;82.80;;;;;;4746000;30;19914;-83
2022/01/17 12:12:40;;;;;;;30.38;8.15;;;8.30;82.30;;;;;;4761119;30;20339;-83
2022/01/17 12:15:16;;;;;;;16.13;7.00;;;8.30;82.70;;;;;;4716960;30;20040;-83
2022/01/17 12:17:43;;;;;;;13.75;8.02;;;8.30;82.80;;;;;;4731664;30;20035;-83
2022/01/17 12:20:13;;;;;;;14.35;7.32;;;8.20;82.80;;;;;;4743172;30;20053;-82
2022/01/17 12:22:39;;;;;;;18.00;8.85;;;8.30;82.40;;;;;;4745915;30;20044;-82
2022/01/17 12:25:26;;;;;;;12.68;7.72;;;8.30;83.30;;;;;;4745501;30;20127;-83
2022/01/17 12:28:04;;;;;;;13.07;7.18;;;8.30;82.50;;;;;;4763508;30;20035;-83
2022/01/17 12:30:50;;;;;;;12.18;7.13;;;8.20;82.90;;;;;;4743829;30;20044;-82
2022/01/17 12:33:28;;;;;;;12.73;7.65;;;8.10;83.20;;;;;;4761615;29;20035;-83
2022/01/17 12:35:55;;;;;;;12.15;7.25;;;8.10;82.90;;;;;;4829692;29;20058;-83
2022/01/17 12:38:41;;;;;;;15.18;7.43;;;8.10;83.40;;;;;;4806103;29;20018;-82
2022/01/17 12:41:27;;;;;;;12.20;7.50;;;8.10;83.30;;;;;;4816493;29;20030;-82
2022/01/17 12:43:53;;;;;;;15.93;7.28;;;8.10;83.00;;;;;;4824333;29;20039;-82
2022/01/17 12:46:20;;;;;;;19.48;7.05;;;8.20;83.80;;;;;;4817654;29;20309;-82
2022/01/17 12:48:49;;;;;;;13.93;7.00;;;8.20;82.60;;;;;;4833809;29;20041;-82
2022/01/17 12:51:17;;;;;;;12.82;8.10;;;8.20;82.70;;;;;;4817641;29;20038;-83
2022/01/17 12:53:53;;;;;;;12.45;7.25;;;8.20;82.40;;;;;;4782022;29;20042;-83
2022/01/17 12:56:19;;;;;;;13.40;7.17;;;8.20;82.30;;;;;;4817092;29;20263;-83
2022/01/17 12:58:46;;;;;;;13.35;6.72;;;8.30;82.80;;;;;;4814526;29;20284;-83
2022/01/17 13:01:15;;;;;;;10.70;5.82;;;8.40;82.40;;;;;;4814677;29;20317;-83
2022/01/17 13:03:43;;;;;;;11.27;6.30;;;8.40;82.40;;;;;;4815613;29;20038;-83
2022/01/17 13:06:18;;;;;;;12.25;7.47;;;8.30;84.00;;;;;;4817874;29;20095;-82
2022/01/17 13:08:46;;;;;;;11.43;7.13;;;8.20;85.60;;;;;;4828486;29;20061;-83
2022/01/17 13:11:17;;;;;;;13.25;7.57;;;8.20;86.50;;;;;;4811026;29;20035;-83
2022/01/17 13:13:53;;;;;;;11.07;6.75;;;8.10;86.80;;;;;;4813473;29;20034;-83
2022/01/17 13:16:21;;;;;;;14.63;7.35;;;8.00;88.30;;;;;;4815922;29;20067;-83
2022/01/17 13:18:52;;;;;;;14.25;7.65;;;7.90;89.70;;;;;;4794068;29;20042;-83
2022/01/17 13:21:18;;;;;;;9.80;6.90;;;7.90;90.50;;;;;;4823412;29;20034;-83
2022/01/17 13:23:53;;;;;;;12.40;7.68;;;7.80;91.20;;;;;;4824797;29;20137;-83
2022/01/17 13:26:24;;;;;;;12.15;7.65;;;7.80;91.10;;;;;;4825403;29;20038;-83
2022/01/17 13:28:52;;;;;;;14.43;7.63;;;7.60;91.80;;;;;;4826551;29;20352;-82
2022/01/17 13:31:23;;;;;;;11.38;7.13;;;7.60;92.00;;;;;;4814519;29;20049;-83
2022/01/17 13:33:50;;;;;;;10.05;6.55;;;7.60;91.50;;;;;;4799086;29;20027;-83
2022/01/17 13:36:35;;;;;;;;;;;7.70;91.80;;;;;;4799230;29;20109;-83
2022/01/17 13:39:18;;;;;;;9.25;6.40;;;7.70;91.30;;;;;;4799469;29;19916;-83
2022/01/17 13:41:57;;;;;;;10.27;6.75;;;7.80;90.60;;;;;;4814201;29;20042;-83
2022/01/17 13:44:32;;;;;;;15.00;8.13;;;7.70;90.40;;;;;;4814334;29;20071;-83
2022/01/17 13:47:00;;;;;;;10.70;6.05;;;7.70;90.20;;;;;;4816375;29;20085;-83
2022/01/17 13:49:31;;;;;;;10.98;6.55;;;7.80;88.80;;;;;;4814502;29;20228;-82
2022/01/17 13:51:58;;;;;;;9.98;6.10;;;7.80;88.60;;;;;;4803015;29;20043;-83
2022/01/17 13:54:32;;;;;;;16.75;5.88;;;7.80;88.90;;;;;;4821342;29;20083;-82
2022/01/17 13:57:00;;;;;;;11.20;5.82;;;7.70;88.20;;;;;;4830839;29;20120;-82
2022/01/17 13:59:29;;;;;;;10.15;6.13;;;7.70;88.00;;;;;;4814836;29;20029;-83
2022/01/17 14:01:57;;;;;;;11.05;7.28;;;7.70;87.00;;;;;;4819714;29;20225;-82
2022/01/17 14:04:29;;;;;;;9.25;6.30;;;7.70;87.20;;;;;;4817076;29;20042;-82
2022/01/17 14:06:58;;;;;;;11.80;6.00;;;7.80;86.80;;;;;;4816452;29;20063;-82
2022/01/17 14:09:34;;;;;;;13.70;5.40;;;7.70;85.40;;;;;;4816524;29;20459;-82
2022/01/17 14:12:02;;;;;;;8.60;4.88;;;7.80;85.50;;;;;;4833030;29;20137;-82
2022/01/17 14:14:28;;;;;;;11.93;5.50;;;7.80;84.30;;;;;;4817872;29;20035;-83
2022/01/17 14:16:56;;;;;;;9.60;5.45;;;7.80;84.10;;;;;;4833643;29;20310;-83
2022/01/17 14:19:22;;;;;;;8.10;4.68;;;7.80;84.00;;;;;;4807408;29;20334;-83
2022/01/17 14:22:03;;;;;;;13.95;5.13;;;7.80;83.40;;;;;;4821881;29;20035;-82
2022/01/17 14:24:38;;;;;;;14.00;5.13;;;7.80;83.50;;;;;;4803992;29;20311;-82
2022/01/17 14:27:18;;;;;;;8.68;5.60;;;7.80;83.60;;;;;;4816305;29;20022;-83
2022/01/17 14:29:50;;;;;;;8.80;4.78;;;7.80;84.10;;;;;;4836804;29;20101;-83
2022/01/17 14:32:19;;;;;;;11.23;5.30;;;7.80;83.00;;;;;;4836501;29;20377;-82
2022/01/17 14:34:47;;;;;;;8.20;4.63;;;7.80;82.70;;;;;;4826266;29;20034;-82
2022/01/17 14:37:15;;;;;;;10.38;5.10;;;7.80;82.70;;;;;;4833575;29;20097;-83
2022/01/17 14:39:45;;;;;;;10.93;5.05;;;7.80;82.40;;;;;;4815703;29;20368;-83
2022/01/17 14:42:19;;;;;;;9.55;5.35;;;7.80;82.10;;;;;;4819247;29;20310;-83
2022/01/17 14:44:52;;;;;;;10.93;5.25;;;7.80;82.00;;;;;;4819853;29;20042;-83
2022/01/17 14:47:21;;;;;;;8.85;5.05;;;7.90;81.70;;;;;;4835882;29;20046;-83
2022/01/17 14:49:49;;;;;;;9.23;5.00;;;7.90;81.70;;;;;;4801495;29;20030;-84
2022/01/17 14:52:21;;;;;;;11.38;4.68;;;7.80;81.50;;;;;;4831143;29;20045;-83
2022/01/17 15:02:53;;;;;;;9.10;5.13;;;7.60;90.00;;;;;;4837430;29;20341;-82
2022/01/17 15:05:19;;;;;;;11.43;4.63;;;7.50;90.10;;;;;;4811640;29;20291;-82
2022/01/17 15:07:49;;;;;;;11.98;5.10;;;7.40;88.20;;;;;;4811546;29;20387;-82
2022/01/17 15:10:15;;;;;;;9.00;5.28;;;7.40;87.30;;;;;;4815729;29;20038;-83
2022/01/17 15:12:40;;;;;;;6.70;4.75;;;7.50;86.70;;;;;;4821988;29;20204;-82
2022/01/17 15:15:07;;;;;;;11.55;5.35;;;7.50;86.60;;;;;;4819646;29;20034;-82
2022/01/17 15:17:34;;;;;;;7.70;4.05;;;7.50;86.30;;;;;;4831117;29;20287;-82
2022/01/17 15:20:00;;;;;;;7.28;4.40;;;7.40;85.90;;;;;;4835678;29;20034;-81
2022/01/17 15:22:26;;;;;;;7.20;3.63;;;7.50;85.50;;;;;;4822177;29;20031;-82
2022/01/17 15:24:52;;;;;;;7.60;4.13;;;7.50;84.70;;;;;;4819954;29;20114;-82
2022/01/17 15:27:18;;;;;;;11.02;4.10;;;7.50;84.80;;;;;;4822596;29;20040;-82
2022/01/17 15:29:45;;;;;;;7.03;4.17;;;7.50;84.50;;;;;;4841321;29;20029;-82
2022/01/17 15:32:11;;;;;;;8.87;4.23;;;7.50;84.00;;;;;;4824549;29;20026;-82
2022/01/17 15:34:41;;;;;;;8.55;4.28;;;7.50;84.50;;;;;;4817977;29;20133;-83
2022/01/17 15:37:09;;;;;;;6.88;4.25;;;7.50;85.10;;;;;;4817740;29;20034;-83
2022/01/17 15:39:36;;;;;;;8.38;3.88;;;7.50;86.10;;;;;;4830652;29;20026;-83
2022/01/17 15:42:05;;;;;;;7.32;3.35;;;7.50;86.30;;;;;;4799941;29;20155;-83
2022/01/17 15:44:36;;;;;;;7.18;3.92;;;7.50;87.10;;;;;;4815049;29;20034;-84
2022/01/17 15:47:04;;;;;;;5.45;3.78;;;7.50;88.30;;;;;;4819999;29;20122;-84
2022/01/17 15:49:30;;;;;;;6.47;3.38;;;7.50;88.40;;;;;;4824993;29;20062;-84
2022/01/17 15:51:57;;;;;;;4.13;2.97;;;7.40;88.80;;;;;;4814727;29;20042;-83
2022/01/17 15:54:23;;;;;;;7.25;3.92;;;7.40;89.00;;;;;;4795105;29;20129;-84
2022/01/17 15:56:54;;;;;;;14.23;4.45;;;7.40;89.20;;;;;;4817151;29;20034;-84
2022/01/17 15:59:20;;;;;;;5.80;3.30;;;7.30;90.30;;;;;;4817464;29;20037;-84
2022/01/17 16:01:46;;;;;;;6.68;4.03;;;7.20;91.20;;;;;;4830395;29;20031;-84
2022/01/17 16:04:12;;;;;;;6.20;3.40;;;7.10;92.40;;;;;;4829993;29;20042;-84
2022/01/17 16:06:38;;;;;;;8.82;4.05;;;7.00;93.30;;;;;;4811640;29;20367;-85
2022/01/17 16:09:03;;;;;;;5.30;3.47;;;6.90;93.50;;;;;;4797450;29;20061;-84
2022/01/17 16:11:32;;;;;;;6.00;3.55;;;6.90;93.50;;;;;;4815603;29;20257;-85
2022/01/17 16:13:58;;;;;;;6.82;3.75;;;6.80;93.90;;;;;;4808528;29;20115;-84
2022/01/17 16:16:24;;;;;;;9.27;3.28;;;6.80;93.60;;;;;;4817738;29;20230;-83
2022/01/17 16:18:52;;;;;;;6.13;3.80;;;6.80;93.60;;;;;;4813833;29;20023;-83
2022/01/17 16:21:19;;;;;;;10.95;4.45;;;6.80;92.80;;;;;;4821913;29;20393;-84
2022/01/17 16:23:46;;;;;;;7.70;3.78;;;6.80;92.80;;;;;;4799522;29;20118;-84
2022/01/17 16:26:12;;;;;;;;;;;6.80;92.90;;;;;;4799854;29;20250;-84
2022/01/17 16:28:38;;;;;;;8.20;3.13;;;6.90;92.00;;;;;;4819227;29;19917;-84
2022/01/17 16:31:04;;;;;;;5.53;3.42;;;6.90;91.80;;;;;;4820291;29;20072;-83
2022/01/17 16:33:30;;;;;;;7.47;3.60;;;6.90;91.70;;;;;;4805289;29;20039;-83
2022/01/17 16:35:56;;;;;;;9.60;3.50;;;6.90;91.60;;;;;;4803402;29;20073;-83
2022/01/17 16:38:22;;;;;;;8.80;3.53;;;7.00;91.50;;;;;;4789838;29;20030;-83
2022/01/17 16:40:48;;;;;;;5.90;3.67;;;7.00;91.50;;;;;;4804185;29;20046;-82
2022/01/17 16:43:14;;;;;;;6.05;3.15;;;7.00;91.60;;;;;;4786677;29;20073;-82
2022/01/17 16:45:42;;;;;;;9.90;3.72;;;7.00;91.50;;;;;;4821619;29;20061;-83
2022/01/17 16:48:08;;;;;;;7.03;3.78;;;7.00;91.80;;;;;;4801596;29;20089;-83
2022/01/17 16:50:35;;;;;;;6.28;3.05;;;7.00;91.70;;;;;;4799955;29;20047;-83
2022/01/17 16:53:01;;;;;;;5.15;3.58;;;7.00;91.70;;;;;;4814653;29;20137;-82
2022/01/17 16:55:27;;;;;;;7.50;3.70;;;7.00;92.00;;;;;;4814287;29;20034;-83
2022/01/17 16:57:53;;;;;;;8.20;3.65;;;7.10;91.90;;;;;;4786570;29;20065;-83
2022/01/17 17:00:20;;;;;;;5.35;3.22;;;7.10;92.10;;;;;;4787360;29;20366;-83
2022/01/17 17:02:46;;;;;;;6.57;3.58;;;7.10;93.00;;;;;;4808105;29;20090;-83
2022/01/17 17:05:13;;;;;;;5.10;3.22;;;7.00;93.50;;;;;;4814536;29;20070;-82